createdAt,value
2023-05-17T00:00:35.859Z,8.17
2023-05-17T00:03:02.686Z,10.03
2023-05-17T00:05:29.891Z,7.17
2023-05-17T00:07:57.080Z,7.50
2023-05-17T00:10:23.910Z,6.40
2023-05-17T00:12:51.478Z,11.77
2023-05-17T00:15:18.648Z,8.90
2023-05-17T00:17:45.905Z,5.17
2023-05-17T00:20:13.102Z,11.37
2023-05-17T00:22:41.208Z,7.27
2023-05-17T00:25:08.242Z,8.87
2023-05-17T00:27:35.092Z,9.13
2023-05-17T00:30:02.171Z,8.27
2023-05-17T00:32:29.074Z,10.07
2023-05-17T00:34:56.432Z,9.67
2023-05-17T00:37:24.727Z,8.73
2023-05-17T00:39:53.072Z,11.40
2023-05-17T00:42:19.922Z,12.37
2023-05-17T00:44:46.931Z,10.83
2023-05-17T00:47:13.781Z,6.83
2023-05-17T00:49:40.785Z,6.60
2023-05-17T00:52:07.899Z,9.00
2023-05-17T00:54:35.218Z,6.87
2023-05-17T00:57:03.397Z,7.47
2023-05-17T00:59:31.399Z,12.53
2023-05-17T01:01:58.516Z,9.47
2023-05-17T01:04:26.018Z,9.83
2023-05-17T01:06:52.949Z,14.50
2023-05-17T01:09:19.949Z,13.27
2023-05-17T01:12:11.448Z,10.77
2023-05-17T01:15:18.467Z,8.20
2023-05-17T01:17:51.652Z,9.73
2023-05-17T01:20:26.948Z,9.63
2023-05-17T01:23:05.213Z,7.87
2023-05-17T01:25:53.892Z,11.77
2023-05-17T01:28:23.420Z,9.63
2023-05-17T01:30:51.978Z,8.07
2023-05-17T01:33:20.583Z,9.57
2023-05-17T01:35:47.497Z,8.93
2023-05-17T01:38:14.396Z,10.10
2023-05-17T01:40:49.901Z,13.83
2023-05-17T01:43:41.618Z,13.70
2023-05-17T01:46:27.187Z,9.77
2023-05-17T01:49:23.931Z,11.17
2023-05-17T01:51:58.273Z,14.00
2023-05-17T01:54:36.986Z,9.07
2023-05-17T01:57:07.327Z,9.27
2023-05-17T01:59:35.200Z,14.57
2023-05-17T02:02:06.569Z,7.93
2023-05-17T02:04:33.608Z,13.40
2023-05-17T02:07:00.394Z,11.73
2023-05-17T02:09:27.191Z,15.50
2023-05-17T02:11:54.324Z,11.53
2023-05-17T02:14:21.225Z,8.50
2023-05-17T02:16:48.171Z,11.57
2023-05-17T02:19:15.405Z,13.53
2023-05-17T02:21:42.289Z,10.00
2023-05-17T02:24:09.477Z,13.97
2023-05-17T02:26:36.618Z,12.50
2023-05-17T02:29:03.481Z,9.47
2023-05-17T02:31:30.282Z,14.50
2023-05-17T02:33:57.242Z,11.23
2023-05-17T02:36:24.154Z,14.57
2023-05-17T02:38:50.987Z,11.73
2023-05-17T02:41:17.940Z,16.63
2023-05-17T02:43:44.719Z,14.10
2023-05-17T02:46:11.659Z,16.03
2023-05-17T02:48:38.504Z,15.83
2023-05-17T02:51:05.750Z,10.37
2023-05-17T02:53:32.792Z,9.07
2023-05-17T02:55:59.555Z,16.87
2023-05-17T02:58:26.637Z,16.63
2023-05-17T03:00:53.590Z,15.13
2023-05-17T03:03:20.750Z,18.33
2023-05-17T03:05:47.762Z,15.67
2023-05-17T03:08:14.840Z,13.70
2023-05-17T03:10:42.131Z,10.47
2023-05-17T03:13:08.988Z,11.30
2023-05-17T03:15:35.933Z,17.20
2023-05-17T03:18:02.988Z,16.83
2023-05-17T03:20:29.998Z,17.90
2023-05-17T03:22:56.763Z,14.67
2023-05-17T03:25:23.532Z,11.90
2023-05-17T03:27:50.921Z,13.10
2023-05-17T03:30:17.979Z,23.37
2023-05-17T03:32:45.676Z,14.67
2023-05-17T03:35:12.716Z,18.60
2023-05-17T03:37:39.495Z,16.17
2023-05-17T03:42:34.368Z,16.53
2023-05-17T03:45:01.232Z,17.23
2023-05-17T03:47:28.020Z,14.87
2023-05-17T03:49:55.085Z,18.37
2023-05-17T03:52:21.854Z,21.47
2023-05-17T03:54:48.658Z,22.00
2023-05-17T03:57:15.700Z,16.30
2023-05-17T03:59:42.582Z,17.17
2023-05-17T04:02:09.486Z,15.37
2023-05-17T04:04:36.498Z,20.50
2023-05-17T04:07:03.352Z,14.13
2023-05-17T04:09:31.900Z,19.03
2023-05-17T04:11:58.969Z,14.50
2023-05-17T04:14:25.807Z,16.90
2023-05-17T04:16:52.703Z,13.47
2023-05-17T04:19:19.949Z,13.07
2023-05-17T04:21:46.829Z,13.07
2023-05-17T04:24:13.585Z,13.47
2023-05-17T04:26:40.550Z,14.53
2023-05-17T04:29:07.410Z,14.07
2023-05-17T04:31:34.755Z,11.03
2023-05-17T04:34:02.768Z,10.57
2023-05-17T04:36:30.165Z,11.77
2023-05-17T04:38:58.451Z,16.17
2023-05-17T04:41:25.479Z,12.33
2023-05-17T04:43:52.208Z,12.30
2023-05-17T04:46:19.190Z,14.50
2023-05-17T04:48:47.224Z,14.03
2023-05-17T04:51:14.202Z,11.27
2023-05-17T04:53:41.395Z,15.27
2023-05-17T04:56:08.204Z,11.30
2023-05-17T04:58:34.937Z,12.67
2023-05-17T05:01:02.001Z,17.23
2023-05-17T05:03:28.788Z,20.27
2023-05-17T05:05:55.676Z,12.57
2023-05-17T05:08:22.712Z,17.43
2023-05-17T05:10:50.064Z,12.90
2023-05-17T05:13:16.956Z,14.30
2023-05-17T05:15:44.314Z,19.00
2023-05-17T05:18:11.177Z,16.23
2023-05-17T05:20:38.639Z,14.50
2023-05-17T05:23:06.343Z,11.30
2023-05-17T05:25:34.473Z,12.23
2023-05-17T05:28:01.243Z,11.93
2023-05-17T05:30:28.283Z,17.37
2023-05-17T05:32:55.270Z,16.90
2023-05-17T05:35:29.520Z,18.17
2023-05-17T05:37:57.479Z,14.83
2023-05-17T05:40:24.302Z,9.77
2023-05-17T05:42:51.602Z,15.63
2023-05-17T05:45:19.194Z,16.80
2023-05-17T05:47:46.029Z,13.57
2023-05-17T05:50:13.329Z,16.40
2023-05-17T05:52:40.249Z,17.67
2023-05-17T05:55:07.437Z,12.53
2023-05-17T05:57:34.716Z,13.47
2023-05-17T06:00:01.489Z,16.37
2023-05-17T06:02:28.290Z,16.20
2023-05-17T06:04:55.351Z,18.07
2023-05-17T06:07:22.357Z,13.70
2023-05-17T06:09:49.204Z,10.87
2023-05-17T06:12:16.709Z,18.33
2023-05-17T06:14:43.513Z,21.10
2023-05-17T06:17:10.379Z,17.67
2023-05-17T06:19:37.502Z,18.47
2023-05-17T06:22:04.845Z,15.17
2023-05-17T06:24:33.181Z,19.23
2023-05-17T06:27:00.458Z,20.10
2023-05-17T06:29:27.603Z,11.13
2023-05-17T06:31:56.419Z,20.27
2023-05-17T06:34:23.734Z,17.33
2023-05-17T06:36:50.526Z,14.03
2023-05-17T06:39:17.758Z,13.77
2023-05-17T06:41:44.884Z,8.10
2023-05-17T06:44:11.837Z,9.73
2023-05-17T06:46:38.805Z,9.83
2023-05-17T06:49:05.905Z,9.77
2023-05-17T06:51:32.804Z,10.43
2023-05-17T06:53:59.621Z,7.50
2023-05-17T06:56:26.883Z,7.47
2023-05-17T06:58:53.689Z,9.33
2023-05-17T07:01:20.961Z,8.57
2023-05-17T07:03:47.926Z,9.80
2023-05-17T07:06:14.803Z,10.17
2023-05-17T07:08:42.071Z,9.20
2023-05-17T07:11:08.937Z,10.50
2023-05-17T07:13:37.068Z,7.90
2023-05-17T07:16:05.490Z,10.40
2023-05-17T07:18:32.456Z,13.40
2023-05-17T07:20:59.698Z,6.60
2023-05-17T07:23:26.793Z,7.63
2023-05-17T07:25:53.596Z,11.30
2023-05-17T07:28:20.439Z,12.20
2023-05-17T07:30:47.421Z,9.07
2023-05-17T07:33:14.386Z,10.40
2023-05-17T07:35:41.301Z,11.23
2023-05-17T07:38:08.604Z,11.87
2023-05-17T07:40:35.771Z,11.30
2023-05-17T07:43:03.078Z,8.37
2023-05-17T07:45:30.202Z,8.10
2023-05-17T07:47:59.925Z,9.33
2023-05-17T07:50:28.645Z,10.07
2023-05-17T07:52:56.376Z,6.03
2023-05-17T07:55:23.706Z,7.67
2023-05-17T07:57:53.638Z,6.33
2023-05-17T08:00:21.101Z,6.93
2023-05-17T08:02:48.275Z,4.80
2023-05-17T08:05:15.443Z,3.70
2023-05-17T08:07:42.502Z,9.20
2023-05-17T08:10:09.750Z,6.82
2023-05-17T08:12:36.801Z,6.28
2023-05-17T08:15:03.834Z,6.88
2023-05-17T08:17:30.790Z,8.95
2023-05-17T08:19:58.475Z,8.50
2023-05-17T08:22:26.423Z,5.40
2023-05-17T08:24:53.548Z,6.13
2023-05-17T08:27:20.645Z,6.72
2023-05-17T08:29:50.196Z,7.47
2023-05-17T08:32:17.407Z,6.35
2023-05-17T08:34:44.799Z,7.82
2023-05-17T08:37:13.458Z,9.57
2023-05-17T08:39:41.845Z,6.60
2023-05-17T08:42:10.037Z,8.23
2023-05-17T08:44:38.678Z,8.85
2023-05-17T08:47:10.379Z,7.32
2023-05-17T08:49:38.492Z,6.43
2023-05-17T08:52:10.723Z,11.40
2023-05-17T08:54:39.247Z,6.28
2023-05-17T08:57:07.749Z,5.57
2023-05-17T08:59:40.144Z,7.53
2023-05-17T09:02:08.887Z,5.65
2023-05-17T09:04:37.341Z,8.77
2023-05-17T09:07:05.096Z,7.10
2023-05-17T09:09:34.517Z,7.50
2023-05-17T09:12:04.505Z,4.73
2023-05-17T09:14:37.532Z,5.93
2023-05-17T09:17:05.740Z,6.10
2023-05-17T09:19:32.801Z,14.40
2023-05-17T09:22:05.485Z,10.23
2023-05-17T09:24:32.510Z,8.60
2023-05-17T09:27:04.318Z,7.40
2023-05-17T09:29:35.398Z,10.10
2023-05-17T09:32:17.130Z,6.47
2023-05-17T09:34:47.144Z,5.33
2023-05-17T09:37:16.003Z,10.30
2023-05-17T09:39:45.280Z,7.20
2023-05-17T09:42:13.299Z,6.33
2023-05-17T09:44:57.633Z,6.37
2023-05-17T09:47:27.974Z,6.22
2023-05-17T09:50:02.785Z,6.15
2023-05-17T09:52:33.016Z,6.53
2023-05-17T09:55:01.238Z,7.00
2023-05-17T09:57:37.167Z,9.73
2023-05-17T10:00:12.015Z,6.13
2023-05-17T10:02:43.717Z,11.63
2023-05-17T10:05:12.520Z,6.00
2023-05-17T10:07:41.261Z,6.17
2023-05-17T10:10:09.408Z,4.30
2023-05-17T10:12:39.233Z,8.13
2023-05-17T10:15:07.739Z,8.73
2023-05-17T10:17:36.274Z,3.90
2023-05-17T10:20:06.893Z,7.97
2023-05-17T10:22:35.083Z,9.60
2023-05-17T10:25:02.688Z,9.23
2023-05-17T10:27:31.307Z,10.07
2023-05-17T10:29:58.653Z,7.97
2023-05-17T10:32:29.253Z,6.20
2023-05-17T10:35:10.684Z,8.07
2023-05-17T10:37:41.304Z,10.33
2023-05-17T10:40:14.963Z,7.03
2023-05-17T10:42:46.474Z,7.67
2023-05-17T10:45:13.898Z,12.23
2023-05-17T10:47:47.000Z,7.85
2023-05-17T10:50:15.662Z,5.18
2023-05-17T10:52:53.277Z,5.47
2023-05-17T10:55:23.543Z,7.57
2023-05-17T10:58:11.515Z,9.20
2023-05-17T11:00:44.966Z,7.88
2023-05-17T11:03:16.882Z,8.35
2023-05-17T11:06:06.467Z,11.10
2023-05-17T11:08:34.143Z,6.38
2023-05-17T11:11:12.469Z,7.03
2023-05-17T11:13:55.011Z,4.33
2023-05-17T11:16:27.987Z,9.10
2023-05-17T11:18:57.836Z,8.57
2023-05-17T11:21:30.488Z,6.93
2023-05-17T11:24:04.060Z,6.67
2023-05-17T11:26:44.592Z,6.00
2023-05-17T11:29:13.997Z,11.00
2023-05-17T11:31:47.536Z,9.93
2023-05-17T11:34:19.509Z,7.17
2023-05-17T11:36:54.889Z,6.83
2023-05-17T11:39:26.276Z,8.87
2023-05-17T11:41:58.802Z,6.43
2023-05-17T11:44:40.296Z,6.27
2023-05-17T11:47:12.360Z,6.37
2023-05-17T11:49:41.850Z,5.23
2023-05-17T11:52:10.250Z,7.93
2023-05-17T11:54:41.649Z,7.23
2023-05-17T11:57:15.029Z,9.07
2023-05-17T11:59:46.729Z,10.57
2023-05-17T12:02:35.484Z,6.20
2023-05-17T12:05:04.818Z,6.10
2023-05-17T12:07:35.615Z,9.57
2023-05-17T12:10:06.708Z,5.73
2023-05-17T12:12:34.692Z,8.07
2023-05-17T12:15:03.418Z,8.50
2023-05-17T12:17:37.630Z,7.53
2023-05-17T12:20:13.402Z,7.80
2023-05-17T12:22:57.679Z,6.77
2023-05-17T12:25:28.234Z,12.10
2023-05-17T12:28:23.178Z,6.43
2023-05-17T12:30:54.901Z,7.80
2023-05-17T12:33:22.184Z,8.77
2023-05-17T12:35:49.493Z,8.60
2023-05-17T12:38:17.267Z,7.67
2023-05-17T12:40:45.489Z,10.97
2023-05-17T12:43:12.721Z,6.20
2023-05-17T12:45:42.371Z,8.33
2023-05-17T12:48:09.585Z,7.80
2023-05-17T12:50:36.485Z,6.53
2023-05-17T12:53:09.127Z,7.13
2023-05-17T12:55:40.450Z,7.23
2023-05-17T12:58:07.335Z,9.17
2023-05-17T13:00:34.752Z,7.53
2023-05-17T13:03:02.266Z,4.87
2023-05-17T13:05:29.577Z,9.70
2023-05-17T13:07:56.905Z,8.70
2023-05-17T13:10:28.202Z,8.90
2023-05-17T13:13:00.134Z,7.67
2023-05-17T13:15:34.224Z,5.57
2023-05-17T13:18:13.150Z,8.37
2023-05-17T13:20:40.589Z,11.97
2023-05-17T13:23:07.795Z,5.37
2023-05-17T13:25:36.823Z,7.97
2023-05-17T13:28:04.193Z,7.70
2023-05-17T13:30:31.958Z,7.40
2023-05-17T13:32:59.188Z,5.67
2023-05-17T13:35:26.487Z,7.07
2023-05-17T13:37:53.598Z,10.87
2023-05-17T13:40:20.761Z,6.20
2023-05-17T13:42:47.573Z,7.97
2023-05-17T13:45:14.649Z,9.80
2023-05-17T13:47:42.179Z,6.73
2023-05-17T13:50:10.197Z,5.00
2023-05-17T13:52:37.080Z,8.80
2023-05-17T13:55:04.579Z,6.83
2023-05-17T13:57:32.549Z,7.07
2023-05-17T13:59:59.524Z,8.40
2023-05-17T14:02:26.763Z,8.10
2023-05-17T14:04:53.652Z,5.67
2023-05-17T14:07:20.584Z,10.20
2023-05-17T14:09:47.703Z,7.93
2023-05-17T14:12:14.942Z,6.63
2023-05-17T14:14:41.852Z,6.70
2023-05-17T14:17:08.813Z,7.00
2023-05-17T14:19:35.789Z,9.00
2023-05-17T14:22:04.805Z,7.00
2023-05-17T14:24:34.523Z,8.90
2023-05-17T14:27:04.106Z,7.33
2023-05-17T14:29:33.280Z,8.60
2023-05-17T14:32:05.619Z,8.10
2023-05-17T14:34:33.022Z,9.53
2023-05-17T14:36:59.794Z,6.67
2023-05-17T14:39:26.804Z,8.27
2023-05-17T14:41:53.655Z,9.10
2023-05-17T14:44:20.664Z,7.73
2023-05-17T14:46:48.240Z,7.37
2023-05-17T14:49:15.116Z,8.93
2023-05-17T14:51:42.477Z,6.60
2023-05-17T14:54:10.279Z,8.23
2023-05-17T14:56:38.719Z,7.93
2023-05-17T14:59:05.490Z,8.63
2023-05-17T15:01:32.861Z,9.00
2023-05-17T15:03:59.756Z,7.03
2023-05-17T15:06:27.135Z,7.30
2023-05-17T15:08:55.121Z,7.93
2023-05-17T15:11:22.358Z,4.83
2023-05-17T15:13:49.387Z,8.70
2023-05-17T15:16:16.227Z,8.10
2023-05-17T15:18:43.536Z,6.20
2023-05-17T15:21:10.828Z,7.63
2023-05-17T15:23:37.784Z,7.53
2023-05-17T15:26:04.678Z,6.53
2023-05-17T15:28:31.791Z,6.10
2023-05-17T15:31:03.044Z,5.37
2023-05-17T15:33:30.899Z,7.83
2023-05-17T15:35:58.247Z,6.47
2023-05-17T15:38:25.065Z,6.27
2023-05-17T15:41:06.159Z,7.07
2023-05-17T15:43:34.949Z,7.30
2023-05-17T15:46:02.609Z,5.87
2023-05-17T15:48:29.716Z,10.07
2023-05-17T15:50:57.820Z,5.60
2023-05-17T15:53:25.068Z,5.87
2023-05-17T15:55:52.105Z,7.33
2023-05-17T15:58:24.212Z,7.40
2023-05-17T16:00:52.650Z,9.33
2023-05-17T16:03:20.029Z,6.50
2023-05-17T16:05:46.954Z,4.67
2023-05-17T16:08:13.934Z,4.60
2023-05-17T16:10:41.066Z,6.07
2023-05-17T16:13:07.860Z,7.77
2023-05-17T16:15:35.350Z,4.63
2023-05-17T16:18:02.272Z,6.37
2023-05-17T16:20:29.226Z,4.20
2023-05-17T16:22:56.174Z,7.77
2023-05-17T16:25:24.745Z,8.67
2023-05-17T16:27:52.227Z,6.03
2023-05-17T16:30:19.833Z,9.07
2023-05-17T16:32:48.118Z,6.67
2023-05-17T16:35:15.517Z,4.97
2023-05-17T16:37:43.498Z,4.70
2023-05-17T16:40:11.065Z,5.43
2023-05-17T16:42:37.931Z,5.47
2023-05-17T16:45:07.145Z,6.10
2023-05-17T16:47:34.870Z,7.73
2023-05-17T16:50:02.321Z,18.73
2023-05-17T16:52:30.408Z,6.47
2023-05-17T16:55:03.630Z,8.50
2023-05-17T16:57:34.760Z,6.30
2023-05-17T17:00:02.037Z,6.37
2023-05-17T17:02:29.283Z,10.40
2023-05-17T17:04:57.078Z,6.07
2023-05-17T17:07:23.870Z,7.93
2023-05-17T17:09:50.676Z,8.10
2023-05-17T17:12:24.663Z,6.93
2023-05-17T17:14:53.565Z,6.57
2023-05-17T17:17:20.746Z,4.93
2023-05-17T17:19:47.496Z,6.83
2023-05-17T17:22:14.972Z,6.90
2023-05-17T17:24:42.952Z,5.53
2023-05-17T17:27:09.804Z,10.60
2023-05-17T17:29:37.456Z,4.33
2023-05-17T17:32:08.047Z,6.70
2023-05-17T17:34:35.012Z,6.43
2023-05-17T17:37:01.850Z,5.77
2023-05-17T17:39:28.857Z,5.90
2023-05-17T17:41:56.010Z,9.23
2023-05-17T17:44:23.055Z,6.87
2023-05-17T17:46:52.600Z,5.50
2023-05-17T17:49:19.667Z,13.33
2023-05-17T17:51:46.733Z,8.53
2023-05-17T17:54:13.762Z,8.60
2023-05-17T17:56:40.624Z,13.03
2023-05-17T17:59:07.478Z,8.77
2023-05-17T18:01:37.585Z,6.90
2023-05-17T18:04:05.285Z,8.50
2023-05-17T18:06:32.241Z,6.97
2023-05-17T18:08:59.690Z,6.93
2023-05-17T18:11:26.987Z,9.13
2023-05-17T18:13:54.805Z,7.53
2023-05-17T18:16:21.942Z,7.97
2023-05-17T18:18:49.066Z,9.07
2023-05-17T18:21:16.556Z,6.03
2023-05-17T18:23:43.385Z,11.70
2023-05-17T18:26:10.418Z,8.33
2023-05-17T18:28:42.528Z,7.30
2023-05-17T18:31:10.584Z,12.00
2023-05-17T18:33:37.553Z,8.37
2023-05-17T18:36:05.640Z,9.10
2023-05-17T18:38:32.627Z,7.87
2023-05-17T18:40:59.683Z,8.60
2023-05-17T18:43:26.495Z,7.13
2023-05-17T18:45:53.522Z,7.23
2023-05-17T18:48:22.142Z,10.73
2023-05-17T18:50:49.583Z,8.83
2023-05-17T18:53:17.009Z,8.30
2023-05-17T18:55:43.756Z,15.03
2023-05-17T18:58:10.836Z,9.30
2023-05-17T19:00:37.981Z,7.70
2023-05-17T19:03:05.837Z,5.63
2023-05-17T19:05:32.811Z,10.67
2023-05-17T19:07:59.944Z,11.10
2023-05-17T19:10:26.743Z,8.87
2023-05-17T19:12:54.020Z,6.77
2023-05-17T19:15:21.258Z,9.10
2023-05-17T19:17:48.449Z,8.90
2023-05-17T19:20:15.482Z,8.97
2023-05-17T19:22:43.143Z,6.77
2023-05-17T19:25:10.276Z,7.30
2023-05-17T19:27:37.109Z,8.87
2023-05-17T19:30:05.446Z,8.13
2023-05-17T19:32:33.340Z,9.57
2023-05-17T19:35:01.373Z,8.83
2023-05-17T19:37:28.826Z,7.00
2023-05-17T19:39:56.010Z,9.93
2023-05-17T19:42:25.998Z,6.90
2023-05-17T19:44:53.042Z,7.20
2023-05-17T19:47:19.950Z,8.90
2023-05-17T19:49:46.841Z,6.17
2023-05-17T19:52:13.913Z,10.70
2023-05-17T19:54:40.988Z,10.20
2023-05-17T19:57:08.154Z,15.47
2023-05-17T19:59:35.566Z,11.17
2023-05-17T20:02:05.363Z,11.23
2023-05-17T20:04:34.020Z,9.43
2023-05-17T20:07:01.325Z,6.90
2023-05-17T20:09:30.898Z,9.87
2023-05-17T20:11:58.654Z,9.53
2023-05-17T20:14:26.611Z,12.90
2023-05-17T20:16:54.430Z,9.40
2023-05-17T20:19:22.577Z,7.20
2023-05-17T20:21:50.568Z,6.73
2023-05-17T20:24:17.947Z,8.40
2023-05-17T20:26:48.462Z,10.77
2023-05-17T20:29:16.089Z,8.83
2023-05-17T20:31:43.094Z,8.93
2023-05-17T20:34:11.086Z,8.10
2023-05-17T20:36:38.198Z,5.87
2023-05-17T20:39:05.143Z,15.57
2023-05-17T20:41:32.162Z,7.80
2023-05-17T20:44:00.686Z,10.23
2023-05-17T20:46:29.932Z,13.03
2023-05-17T20:48:58.240Z,7.50
2023-05-17T20:51:27.626Z,6.73
2023-05-17T20:53:55.442Z,13.30
2023-05-17T20:56:23.027Z,8.47
2023-05-17T20:58:49.871Z,12.23
2023-05-17T21:01:16.737Z,11.20
2023-05-17T21:03:45.345Z,6.97
2023-05-17T21:06:13.127Z,7.90
2023-05-17T21:08:40.861Z,8.40
2023-05-17T21:11:07.943Z,5.43
2023-05-17T21:13:34.912Z,7.17
2023-05-17T21:16:01.904Z,10.23
2023-05-17T21:18:29.100Z,8.07
2023-05-17T21:20:56.255Z,8.87
2023-05-17T21:23:23.226Z,11.00
2023-05-17T21:25:50.301Z,15.43
2023-05-17T21:28:17.362Z,11.67
2023-05-17T21:30:44.686Z,8.63
2023-05-17T21:33:12.073Z,8.10
2023-05-17T21:35:39.123Z,5.80
2023-05-17T21:38:06.125Z,10.80
2023-05-17T21:40:33.843Z,6.63
2023-05-17T21:43:01.154Z,10.17
2023-05-17T21:45:28.584Z,10.57
2023-05-17T21:47:56.114Z,10.10
2023-05-17T21:50:23.164Z,11.83
2023-05-17T21:52:50.986Z,12.23
2023-05-17T21:55:17.839Z,12.43
2023-05-17T21:57:44.699Z,11.67
2023-05-17T22:00:15.942Z,15.77
2023-05-17T22:02:46.726Z,7.07
2023-05-17T22:05:14.465Z,9.10
2023-05-17T22:07:41.968Z,8.43
2023-05-17T22:10:10.402Z,7.50
2023-05-17T22:12:38.622Z,8.23
2023-05-17T22:15:07.175Z,10.90
2023-05-17T22:17:47.889Z,6.87
2023-05-17T22:20:23.602Z,9.40
2023-05-17T22:22:50.976Z,14.07
2023-05-17T22:25:17.995Z,10.97
2023-05-17T22:27:45.821Z,7.83
2023-05-17T22:30:13.633Z,10.77
2023-05-17T22:32:40.497Z,10.70
2023-05-17T22:35:07.984Z,10.23
2023-05-17T22:37:34.981Z,8.17
2023-05-17T22:40:01.872Z,9.53
2023-05-17T22:42:28.920Z,9.00
2023-05-17T22:44:55.825Z,13.20
2023-05-17T22:47:24.535Z,13.37
2023-05-17T22:49:52.775Z,8.23
2023-05-17T22:52:20.029Z,12.17
2023-05-17T22:54:47.058Z,7.30
2023-05-17T22:57:14.199Z,9.77
2023-05-17T22:59:43.977Z,11.53
2023-05-17T23:02:14.477Z,13.17
2023-05-17T23:04:41.336Z,12.57
2023-05-17T23:07:10.014Z,10.33
2023-05-17T23:09:40.850Z,8.47
2023-05-17T23:12:08.982Z,6.90
2023-05-17T23:14:36.733Z,11.43
2023-05-17T23:17:05.226Z,7.73
2023-05-17T23:19:36.125Z,9.50
2023-05-17T23:22:03.693Z,6.40
2023-05-17T23:24:30.666Z,13.30
2023-05-17T23:27:00.501Z,9.10
2023-05-17T23:29:27.568Z,13.50
2023-05-17T23:31:54.525Z,8.37
2023-05-17T23:34:22.446Z,7.80
2023-05-17T23:36:49.636Z,10.87
2023-05-17T23:39:16.664Z,10.17
2023-05-17T23:41:43.594Z,12.57
2023-05-17T23:44:11.815Z,15.10
2023-05-17T23:46:39.725Z,9.77
2023-05-17T23:49:07.223Z,11.93
2023-05-17T23:51:35.080Z,7.97
2023-05-17T23:54:02.061Z,10.60
2023-05-17T23:56:28.994Z,8.43
2023-05-17T23:58:56.150Z,11.07
